Terminal Aerodrome Forecast
Issued by NWS

Home | Current Version | Previous Version | Text Only | Print | Product List | Glossary On
Versions: 1 2 3 4 5 6 7 8 9 10 11 12 13 14 15 16 17 18 19 20 21 22 23 24 25 26 27 28 29 30
000
FTUS41 KBUF 220900 AAA
TAFIAG
TAF AMD
KIAG 220902Z 2209/2306 32012KT P6SM OVC020
     FM221300 31013G23KT P6SM BKN025
     FM222000 28012G18KT P6SM BKN035
     FM222200 28011KT P6SM SCT035
     FM230000 29009KT P6SM SCT250=

USA.gov is the U.S. government's official web portal to all federal, state and local government web resources and services.